Flight Track Log - Related Links

Times and Time Zones

All times are in EDT time to prevent confusion due to time zone crossing. See the RPA3253 flight status page for this flight to view local times or setup timezone preferences in your user account.


Time Position Orientation Groundspeed Altitude Reporting Facility
EDT Latitude Longitude Course Direction KTS MPH feet Rate Location/Type
Wed 10:47:17 PM 35.1869 -80.9511 251° West 161 185 1,800  Level Atlanta Center
Wed 10:47:59 PM 35.1494 -80.9500 179° South 188 216 2,700 1,872 Climbing Atlanta Center
Wed 10:49:00 PM 35.2667 -81.1664 270° West  Level FlightAware Approximate
Wed 10:49:06 PM 35.0900 -80.9928 210° Southwest 270 311 5,200  Level Atlanta Center
Wed 10:50:00 PM 35.2099 -81.2410 199° South  Level FlightAware Approximate
Wed 10:50:29 PM 35.0972 -81.1219 274° West 276 318 9,600  Level Atlanta Center
Wed 10:51:00 PM 35.1130 -81.2759 192° South  Level FlightAware Approximate
Wed 10:51:29 PM 35.0889 -81.2111 264° West 281 323 11,400  Level Atlanta Center
Wed 10:52:00 PM 35.0600 -81.3651 251° West  Level FlightAware Approximate
Wed 10:52:29 PM 35.0789 -81.3206 264° West 306 352 13,900  Level Atlanta Center
Wed 10:53:29 PM 35.0478 -81.4256 250° West 323 372 14,000 850 Climbing Atlanta Center
Wed 10:54:29 PM 35.0167 -81.5306 250° West 329 379 15,600 1,900 Climbing Atlanta Center
Wed 10:55:29 PM 34.9833 -81.6356 249° West 335 386 17,800 2,300 Climbing Atlanta Center
Wed 10:56:29 PM 34.9458 -81.7581 250° West 340 391 20,200 2,150 Climbing Atlanta Center
Wed 10:57:29 PM 34.9000 -81.8658 243° Southwest 353 406 22,100 1,400 Climbing Atlanta Center
Wed 10:58:29 PM 34.8472 -81.9558 234° Southwest 362 417 23,000 450 Climbing Atlanta Center
Wed 10:59:29 PM 34.7903 -82.0533 235° Southwest 367 422 23,000 650 Level Atlanta Center
Wed 11:00:29 PM 34.7336 -82.1558 236° Southwest 367 422 24,300 1,550 Climbing Atlanta Center
Wed 11:01:29 PM 34.6767 -82.2606 237° Southwest 372 428 26,100 1,450 Climbing Atlanta Center
Wed 11:02:29 PM 34.6197 -82.3603 235° Southwest 372 428 27,200 1,150 Climbing Atlanta Center
Wed 11:03:29 PM 34.5564 -82.4650 234° Southwest 377 434 28,400 1,050 Climbing Atlanta Center
Wed 11:04:29 PM 34.4950 -82.5719 235° Southwest 382 440 29,300 950 Climbing Atlanta Center
Wed 11:05:29 PM 34.4294 -82.6814 234° Southwest 392 451 30,300 1,050 Climbing Atlanta Center
Wed 11:06:29 PM 34.3661 -82.7906 235° Southwest 397 457 31,400 1,150 Climbing Atlanta Center
Wed 11:07:29 PM 34.3067 -82.8969 236° Southwest 397 457 32,600 1,300 Climbing Atlanta Center
Wed 11:08:29 PM 34.2408 -83.0061 234° Southwest 397 457 34,000 1,150 Climbing Atlanta Center
Wed 11:09:29 PM 34.1747 -83.1172 234° Southwest 390 449 34,900 800 Climbing Atlanta Center
Wed 11:10:29 PM 34.1172 -83.2208 236° Southwest 385 443 35,600 550 Climbing Atlanta Center
Wed 11:11:29 PM 34.0572 -83.3267 236° Southwest 380 437 36,000 200 Climbing Atlanta Center
Wed 11:12:29 PM 33.9953 -83.4300 234° Southwest 380 437 36,000  Level Atlanta Center
Wed 11:13:29 PM 33.9331 -83.5406 236° Southwest 391 450 36,000  Level Atlanta Center
Wed 11:14:29 PM 33.8708 -83.6461 235° Southwest 396 456 36,000  Level Atlanta Center
Wed 11:15:29 PM 33.8086 -83.7539 235° Southwest 396 456 36,000  Level Atlanta Center
Wed 11:16:29 PM 33.7461 -83.8614 235° Southwest 396 456 36,000  Level Atlanta Center
Wed 11:17:29 PM 33.6897 -83.9564 235° Southwest 401 461 36,000  Level Atlanta Center
Wed 11:18:29 PM 33.6272 -84.0614 234° Southwest 401 461 36,000  Level Atlanta Center
Wed 11:19:29 PM 33.5644 -84.1683 235° Southwest 401 461 36,000  Level Atlanta Center
Wed 11:20:29 PM 33.4997 -84.2781 235° Southwest 406 467 36,000  Level Atlanta Center
Wed 11:21:29 PM 33.4306 -84.3972 235° Southwest 406 467 36,000  Level Atlanta Center
Wed 11:22:29 PM 33.3675 -84.5064 235° Southwest 406 467 36,000  Level Atlanta Center
Wed 11:23:29 PM 33.3044 -84.6131 235° Southwest 406 467 36,000  Level Atlanta Center
Wed 11:24:29 PM 33.2372 -84.7242 234° Southwest 406 467 36,000  Level Atlanta Center
Wed 11:25:29 PM 33.1739 -84.8331 235° Southwest 406 467 36,000  Level Atlanta Center
Wed 11:26:29 PM 33.1106 -84.9417 235° Southwest 406 467 36,000  Level Atlanta Center
Wed 11:27:29 PM 33.0450 -85.0475 234° Southwest 406 467 36,000  Level Atlanta Center
Wed 11:28:29 PM 32.9856 -85.1483 235° Southwest 406 467 36,000  Level Atlanta Center
Wed 11:29:29 PM 32.9136 -85.2561 232° Southwest 401 461 36,000  Level Atlanta Center
Wed 11:30:29 PM 32.8500 -85.3642 235° Southwest 401 461 36,000  Level Atlanta Center
Wed 11:31:29 PM 32.7839 -85.4719 234° Southwest 406 467 36,000  Level Atlanta Center
Wed 11:32:29 PM 32.7200 -85.5794 235° Southwest 406 467 36,000  Level Atlanta Center
Wed 11:33:29 PM 32.6519 -85.6844 232° Southwest 406 467 36,000  Level Atlanta Center
Wed 11:34:29 PM 32.5858 -85.7942 234° Southwest 406 467 36,000  Level Atlanta Center
Wed 11:35:29 PM 32.5194 -85.9011 234° Southwest 406 467 36,000  Level Atlanta Center
Wed 11:36:29 PM 32.4467 -86.0128 232° Southwest 411 473 36,000  Level Atlanta Center
Wed 11:37:29 PM 32.3844 -86.1222 236° Southwest 416 479 36,000  Level Atlanta Center
Wed 11:38:29 PM 32.3178 -86.2286 233° Southwest 411 473 36,000  Level Atlanta Center
Wed 11:39:29 PM 32.2511 -86.3375 234° Southwest 411 473 36,000  Level Atlanta Center
Wed 11:40:29 PM 32.1886 -86.4514 237° Southwest 411 473 36,000  Level Atlanta Center
Wed 11:41:29 PM 32.1258 -86.5625 236° Southwest 411 473 36,000  Level Atlanta Center
Wed 11:42:29 PM 32.0669 -86.6761 239° Southwest 411 473 36,000  Level Atlanta Center
Wed 11:43:29 PM 32.0044 -86.7744 233° Southwest 411 473 36,000  Level Atlanta Center
Wed 11:44:29 PM 31.9433 -86.8853 237° Southwest 411 473 36,000  Level Atlanta Center
Wed 11:45:29 PM 31.8803 -86.9958 236° Southwest 411 473 36,000  Level Atlanta Center
Wed 11:46:29 PM 31.8172 -87.1061 236° Southwest 411 473 36,000  Level Atlanta Center
Wed 11:48:28 PM 31.6956 -87.3367 238° Southwest 406 467 36,000  Level Houston Center
Wed 11:49:29 PM 31.6325 -87.4483 236° Southwest 410 472 36,000  Level Houston Center
Wed 11:50:29 PM 31.5694 -87.5603 237° Southwest 412 474 36,000  Level Houston Center
Wed 11:51:30 PM 31.5075 -87.6689 236° Southwest 404 465 36,000  Level Houston Center
Wed 11:52:31 PM 31.4461 -87.7756 236° Southwest 397 457 36,000  Level Houston Center
Wed 11:53:32 PM 31.3842 -87.8842 236° Southwest 400 460 36,000  Level Houston Center
Wed 11:54:32 PM 31.3231 -87.9928 237° Southwest 402 463 36,000  Level Houston Center
Wed 11:55:33 PM 31.2631 -88.0981 236° Southwest 395 455 36,000  Level Houston Center
Wed 11:56:34 PM 31.1942 -88.2172 236° Southwest 394 453 36,000  Level Houston Center
Wed 11:57:35 PM 31.1319 -88.3239 236° Southwest 399 459 36,000 -645 Level Houston Center
Wed 11:58:35 PM 31.0703 -88.4303 236° Southwest 399 459 34,700 -1,636 Descending Houston Center
Wed 11:59:36 PM 31.0069 -88.5347 235° Southwest 395 455 32,700 -1,967 Descending Houston Center
Thu 12:00:37 AM 30.9914 -88.6628 262° West 405 466 30,700 -1,983 Descending Houston Center
Thu 12:01:37 AM 30.9867 -88.7911 268° West 402 463 28,700 -1,983 Descending Houston Center
Thu 12:02:38 AM 30.9817 -88.9236 268° West 406 467 26,700 -1,967 Descending Houston Center
Thu 12:03:39 AM 30.9767 -89.0497 267° West 400 460 24,700 -1,983 Descending Houston Center
Thu 12:04:39 AM 30.9706 -89.1742 267° West 389 448 22,700 -1,983 Descending Houston Center
Thu 12:05:40 AM 30.9658 -89.2939 267° West 374 430 20,700 -1,983 Descending Houston Center
Thu 12:06:40 AM 30.9639 -89.4114 269° West 366 421 18,700 -1,983 Descending Houston Center
Thu 12:07:41 AM 30.9597 -89.5258 268° West 360 414 16,700 -1,967 Descending Houston Center
Thu 12:08:42 AM 30.9572 -89.6306 268° West 332 382 14,700 -2,000 Descending Houston Center
Thu 12:09:26 AM 30.9236 -89.7042 242° Southwest 333 383 13,200 -1,884 Descending Houston Center
Thu 12:10:43 AM 30.8461 -89.7850 222° Southwest 318 366 10,900 -1,438 Descending Houston Center
Thu 12:11:52 AM 30.7444 -89.8456 207° Southwest 297 342 9,700 -1,041 Descending Houston Center
Thu 12:12:44 AM 30.6822 -89.8789 205° Southwest 300 345 8,800 -1,018 Descending Houston Center
Thu 12:13:44 AM 30.6094 -89.9167 204° Southwest 292 336 7,800 -992 Descending Houston Center
Thu 12:14:45 AM 30.5381 -89.9561 205° Southwest 287 330 6,800 -1,015 Descending Houston Center
Thu 12:15:54 AM 30.4550 -90.0031 206° Southwest 281 323 5,600 -1,015 Descending Houston Center
Thu 12:16:55 AM 30.3875 -90.0422 207° Southwest 272 313 4,600 -881 Descending Houston Center
Thu 12:17:43 AM 30.3300 -90.0758 207° Southwest 270 311 4,000 -881 Descending Houston Center
Thu 12:18:44 AM 30.2619 -90.1075 202° Southwest 273 314 3,000 -992 Descending Houston Center
Thu 12:19:44 AM 30.1942 -90.1464 206° Southwest 268 308 2,000 -522 Descending Houston Center
Thu 12:20:39 AM 30.1408 -90.1775 207° Southwest 231 266 2,000  Level Houston Center
Thu 12:21:40 AM 30.0875 -90.2086 207° Southwest 207 238 2,000 -496 Level Houston Center
Thu 12:22:40 AM 30.0464 -90.2319 206° Southwest 161 185 1,000 -893 Descending Houston Center
Thu 12:23:41 AM 30.0092 -90.2431 194° South 125 144 200 -787 Descending Houston Center
Thu 12:25:00 AM 29.9833 -90.2500 208° Southwest  Level FlightAware Approximate

Login

Don't have an account? Register now (free) for customized features, flight alerts, and more!